sensor_id;sensor_type;location;lat;lon;timestamp;pressure;altitude;pressure_sealevel;temperature;humidity
36964;BME280;22878;48.616;35.326;2022-10-23T00:00:41;101467.13;;;8.85;100.00
36964;BME280;22878;48.616;35.326;2022-10-23T00:03:07;101459.66;;;8.87;100.00
36964;BME280;22878;48.616;35.326;2022-10-23T00:05:33;101458.39;;;8.90;100.00
36964;BME280;22878;48.616;35.326;2022-10-23T00:07:59;101460.84;;;8.91;100.00
36964;BME280;22878;48.616;35.326;2022-10-23T00:10:26;101456.06;;;8.93;100.00
36964;BME280;22878;48.616;35.326;2022-10-23T00:12:53;101456.66;;;8.95;100.00
36964;BME280;22878;48.616;35.326;2022-10-23T00:15:21;101450.02;;;8.98;100.00
36964;BME280;22878;48.616;35.326;2022-10-23T00:17:48;101446.80;;;8.98;100.00
36964;BME280;22878;48.616;35.326;2022-10-23T00:20:15;101446.87;;;9.01;100.00
36964;BME280;22878;48.616;35.326;2022-10-23T00:22:41;101437.00;;;9.04;100.00
36964;BME280;22878;48.616;35.326;2022-10-23T00:25:08;101439.45;;;9.05;100.00
36964;BME280;22878;48.616;35.326;2022-10-23T00:27:36;101431.98;;;9.07;100.00
36964;BME280;22878;48.616;35.326;2022-10-23T00:30:04;101428.55;;;9.09;100.00
36964;BME280;22878;48.616;35.326;2022-10-23T00:36:13;101424.88;;;9.13;100.00
36964;BME280;22878;48.616;35.326;2022-10-23T00:38:40;101416.56;;;9.15;100.00
36964;BME280;22878;48.616;35.326;2022-10-23T00:41:08;101411.56;;;9.18;100.00
36964;BME280;22878;48.616;35.326;2022-10-23T00:43:53;101403.78;;;9.19;100.00
36964;BME280;22878;48.616;35.326;2022-10-23T00:46:22;101404.91;;;9.21;100.00
36964;BME280;22878;48.616;35.326;2022-10-23T00:48:48;101402.78;;;9.23;100.00
36964;BME280;22878;48.616;35.326;2022-10-23T00:51:14;101400.98;;;9.26;100.00
36964;BME280;22878;48.616;35.326;2022-10-23T00:53:42;101394.04;;;9.27;100.00
36964;BME280;22878;48.616;35.326;2022-10-23T00:56:09;101387.95;;;9.32;100.00
36964;BME280;22878;48.616;35.326;2022-10-23T00:58:35;101385.57;;;9.33;100.00
36964;BME280;22878;48.616;35.326;2022-10-23T01:01:02;101383.16;;;9.34;100.00
36964;BME280;22878;48.616;35.326;2022-10-23T01:03:30;101386.73;;;9.37;100.00
36964;BME280;22878;48.616;35.326;2022-10-23T01:06:06;101381.70;;;9.41;100.00
36964;BME280;22878;48.616;35.326;2022-10-23T01:17:16;101365.23;;;9.49;100.00
36964;BME280;22878;48.616;35.326;2022-10-23T01:28:33;101345.98;;;9.54;100.00
36964;BME280;22878;48.616;35.326;2022-10-23T01:31:03;101338.20;;;9.55;100.00
36964;BME280;22878;48.616;35.326;2022-10-23T01:33:36;101336.09;;;9.58;100.00
36964;BME280;22878;48.616;35.326;2022-10-23T01:36:10;101327.21;;;9.57;100.00
36964;BME280;22878;48.616;35.326;2022-10-23T01:41:14;101318.61;;;9.58;100.00
36964;BME280;22878;48.616;35.326;2022-10-23T01:43:54;101308.72;;;9.61;100.00
36964;BME280;22878;48.616;35.326;2022-10-23T01:46:23;101307.09;;;9.60;100.00
36964;BME280;22878;48.616;35.326;2022-10-23T01:48:52;101301.17;;;9.60;100.00
36964;BME280;22878;48.616;35.326;2022-10-23T01:51:21;101299.89;;;9.63;100.00
36964;BME280;22878;48.616;35.326;2022-10-23T01:53:51;101303.67;;;9.64;100.00
36964;BME280;22878;48.616;35.326;2022-10-23T01:56:31;101288.66;;;9.66;100.00
36964;BME280;22878;48.616;35.326;2022-10-23T01:59:02;101290.28;;;9.67;100.00
36964;BME280;22878;48.616;35.326;2022-10-23T02:01:32;101289.75;;;9.67;100.00
36964;BME280;22878;48.616;35.326;2022-10-23T02:04:02;101292.22;;;9.69;100.00
36964;BME280;22878;48.616;35.326;2022-10-23T02:06:30;101287.42;;;9.71;100.00
36964;BME280;22878;48.616;35.326;2022-10-23T02:08:56;101293.73;;;9.76;100.00
36964;BME280;22878;48.616;35.326;2022-10-23T02:11:22;101287.87;;;9.80;100.00
36964;BME280;22878;48.616;35.326;2022-10-23T02:13:59;101288.22;;;9.83;100.00
36964;BME280;22878;48.616;35.326;2022-10-23T02:28:19;101290.40;;;9.98;100.00
36964;BME280;22878;48.616;35.326;2022-10-23T02:30:48;101274.78;;;9.97;100.00
36964;BME280;22878;48.616;35.326;2022-10-23T02:33:16;101278.81;;;9.97;100.00
36964;BME280;22878;48.616;35.326;2022-10-23T02:35:42;101286.36;;;9.98;100.00
36964;BME280;22878;48.616;35.326;2022-10-23T02:38:29;101285.83;;;9.98;100.00
36964;BME280;22878;48.616;35.326;2022-10-23T02:41:15;101279.62;;;9.98;100.00
36964;BME280;22878;48.616;35.326;2022-10-23T02:49:37;101282.60;;;9.99;100.00
36964;BME280;22878;48.616;35.326;2022-10-23T02:58:07;101271.41;;;10.05;100.00
36964;BME280;22878;48.616;35.326;2022-10-23T03:01:00;101272.80;;;10.07;100.00
36964;BME280;22878;48.616;35.326;2022-10-23T03:03:34;101269.36;;;10.09;100.00
36964;BME280;22878;48.616;35.326;2022-10-23T03:06:01;101269.91;;;10.11;100.00
36964;BME280;22878;48.616;35.326;2022-10-23T03:08:27;101266.18;;;10.12;100.00
36964;BME280;22878;48.616;35.326;2022-10-23T03:10:55;101268.08;;;10.14;100.00
36964;BME280;22878;48.616;35.326;2022-10-23T03:13:21;101266.23;;;10.15;100.00
36964;BME280;22878;48.616;35.326;2022-10-23T03:15:47;101261.94;;;10.16;100.00
36964;BME280;22878;48.616;35.326;2022-10-23T03:18:13;101262.75;;;10.17;100.00
36964;BME280;22878;48.616;35.326;2022-10-23T03:20:39;101258.70;;;10.17;100.00
36964;BME280;22878;48.616;35.326;2022-10-23T03:23:05;101258.48;;;10.18;100.00
36964;BME280;22878;48.616;35.326;2022-10-23T03:25:33;101252.84;;;10.20;100.00
36964;BME280;22878;48.616;35.326;2022-10-23T03:27:59;101250.45;;;10.21;100.00
36964;BME280;22878;48.616;35.326;2022-10-23T03:30:25;101256.40;;;10.23;100.00
36964;BME280;22878;48.616;35.326;2022-10-23T03:32:51;101255.36;;;10.24;100.00
36964;BME280;22878;48.616;35.326;2022-10-23T03:35:16;101252.66;;;10.24;100.00
36964;BME280;22878;48.616;35.326;2022-10-23T03:37:42;101253.20;;;10.23;100.00
36964;BME280;22878;48.616;35.326;2022-10-23T03:40:09;101253.22;;;10.26;100.00
36964;BME280;22878;48.616;35.326;2022-10-23T03:42:35;101252.48;;;10.28;100.00
36964;BME280;22878;48.616;35.326;2022-10-23T03:45:01;101253.35;;;10.31;100.00
36964;BME280;22878;48.616;35.326;2022-10-23T03:47:27;101247.16;;;10.31;100.00
36964;BME280;22878;48.616;35.326;2022-10-23T03:49:54;101242.84;;;10.30;100.00
36964;BME280;22878;48.616;35.326;2022-10-23T03:52:20;101240.16;;;10.32;100.00
36964;BME280;22878;48.616;35.326;2022-10-23T03:54:46;101236.66;;;10.32;100.00
36964;BME280;22878;48.616;35.326;2022-10-23T04:00:52;101229.11;;;10.31;100.00
36964;BME280;22878;48.616;35.326;2022-10-23T04:03:18;101232.08;;;10.32;100.00
36964;BME280;22878;48.616;35.326;2022-10-23T04:05:44;101232.61;;;10.32;100.00
36964;BME280;22878;48.616;35.326;2022-10-23T04:08:11;101227.81;;;10.34;100.00
36964;BME280;22878;48.616;35.326;2022-10-23T04:14:17;101223.81;;;10.36;100.00
36964;BME280;22878;48.616;35.326;2022-10-23T04:16:43;101217.66;;;10.38;100.00
36964;BME280;22878;48.616;35.326;2022-10-23T04:19:09;101207.92;;;10.37;100.00
36964;BME280;22878;48.616;35.326;2022-10-23T04:21:35;101206.63;;;10.40;100.00
36964;BME280;22878;48.616;35.326;2022-10-23T04:24:02;101210.14;;;10.40;100.00
36964;BME280;22878;48.616;35.326;2022-10-23T04:26:28;101208.02;;;10.42;100.00
36964;BME280;22878;48.616;35.326;2022-10-23T04:28:54;101206.47;;;10.46;100.00
36964;BME280;22878;48.616;35.326;2022-10-23T04:31:20;101201.66;;;10.49;100.00
36964;BME280;22878;48.616;35.326;2022-10-23T04:33:46;101197.94;;;10.52;100.00
36964;BME280;22878;48.616;35.326;2022-10-23T04:36:12;101195.83;;;10.54;100.00
36964;BME280;22878;48.616;35.326;2022-10-23T04:38:38;101195.56;;;10.56;100.00
36964;BME280;22878;48.616;35.326;2022-10-23T04:41:04;101192.11;;;10.58;100.00
36964;BME280;22878;48.616;35.326;2022-10-23T04:43:30;101195.96;;;10.62;100.00
36964;BME280;22878;48.616;35.326;2022-10-23T04:45:56;101193.27;;;10.62;100.00
36964;BME280;22878;48.616;35.326;2022-10-23T04:48:23;101199.20;;;10.64;100.00
36964;BME280;22878;48.616;35.326;2022-10-23T04:51:00;101188.74;;;10.67;100.00
36964;BME280;22878;48.616;35.326;2022-10-23T04:53:28;101196.34;;;10.71;100.00
36964;BME280;22878;48.616;35.326;2022-10-23T04:55:57;101192.06;;;10.72;100.00
36964;BME280;22878;48.616;35.326;2022-10-23T05:02:04;101177.88;;;10.79;100.00
36964;BME280;22878;48.616;35.326;2022-10-23T05:08:11;101183.66;;;10.88;100.00
36964;BME280;22878;48.616;35.326;2022-10-23T05:10:38;101184.33;;;10.95;100.00
36964;BME280;22878;48.616;35.326;2022-10-23T05:13:04;101186.03;;;11.01;100.00
36964;BME280;22878;48.616;35.326;2022-10-23T05:15:30;101183.92;;;11.06;100.00
36964;BME280;22878;48.616;35.326;2022-10-23T05:18:00;101182.65;;;11.11;100.00
36964;BME280;22878;48.616;35.326;2022-10-23T05:20:30;101177.30;;;11.13;100.00
36964;BME280;22878;48.616;35.326;2022-10-23T05:22:59;101180.03;;;11.16;100.00
36964;BME280;22878;48.616;35.326;2022-10-23T05:25:28;101181.95;;;11.18;100.00
36964;BME280;22878;48.616;35.326;2022-10-23T05:27:55;101178.19;;;11.19;100.00
36964;BME280;22878;48.616;35.326;2022-10-23T05:30:21;101172.83;;;11.22;100.00
36964;BME280;22878;48.616;35.326;2022-10-23T05:32:47;101174.98;;;11.22;100.00
36964;BME280;22878;48.616;35.326;2022-10-23T05:35:16;101172.59;;;11.26;100.00
36964;BME280;22878;48.616;35.326;2022-10-23T05:37:44;101171.59;;;11.32;100.00
36964;BME280;22878;48.616;35.326;2022-10-23T05:40:12;101174.36;;;11.37;100.00
36964;BME280;22878;48.616;35.326;2022-10-23T05:42:38;101176.06;;;11.43;100.00
36964;BME280;22878;48.616;35.326;2022-10-23T05:47:57;101166.22;;;11.54;100.00
36964;BME280;22878;48.616;35.326;2022-10-23T05:50:23;101169.45;;;11.53;100.00
36964;BME280;22878;48.616;35.326;2022-10-23T05:52:49;101166.25;;;11.56;100.00
36964;BME280;22878;48.616;35.326;2022-10-23T05:55:15;101163.58;;;11.59;100.00
36964;BME280;22878;48.616;35.326;2022-10-23T05:57:41;101166.62;;;11.65;100.00
36964;BME280;22878;48.616;35.326;2022-10-23T06:00:08;101164.49;;;11.70;100.00
36964;BME280;22878;48.616;35.326;2022-10-23T06:02:34;101167.53;;;11.76;100.00
36964;BME280;22878;48.616;35.326;2022-10-23T06:05:00;101166.23;;;11.81;100.00
36964;BME280;22878;48.616;35.326;2022-10-23T06:07:29;101166.00;;;11.82;100.00
36964;BME280;22878;48.616;35.326;2022-10-23T06:13:36;101167.75;;;11.91;100.00
36964;BME280;22878;48.616;35.326;2022-10-23T06:16:12;101164.53;;;11.97;100.00
36964;BME280;22878;48.616;35.326;2022-10-23T06:22:22;101160.59;;;12.07;100.00
36964;BME280;22878;48.616;35.326;2022-10-23T06:24:48;101162.78;;;12.10;100.00
36964;BME280;22878;48.616;35.326;2022-10-23T06:27:16;101159.03;;;12.14;100.00
36964;BME280;22878;48.616;35.326;2022-10-23T06:29:42;101152.57;;;12.17;100.00
36964;BME280;22878;48.616;35.326;2022-10-23T06:32:08;101148.00;;;12.20;100.00
36964;BME280;22878;48.616;35.326;2022-10-23T06:34:34;101150.76;;;12.25;100.00
36964;BME280;22878;48.616;35.326;2022-10-23T06:37:00;101145.41;;;12.31;100.00
36964;BME280;22878;48.616;35.326;2022-10-23T06:39:26;101143.53;;;12.34;100.00
36964;BME280;22878;48.616;35.326;2022-10-23T06:41:52;101145.45;;;12.36;100.00
36964;BME280;22878;48.616;35.326;2022-10-23T06:44:18;101134.95;;;12.42;100.00
36964;BME280;22878;48.616;35.326;2022-10-23T06:49:47;101126.95;;;12.57;100.00
36964;BME280;22878;48.616;35.326;2022-10-23T06:52:13;101125.64;;;12.62;100.00
36964;BME280;22878;48.616;35.326;2022-10-23T06:54:39;101124.60;;;12.68;100.00
36964;BME280;22878;48.616;35.326;2022-10-23T06:57:08;101122.20;;;12.75;100.00
36964;BME280;22878;48.616;35.326;2022-10-23T07:03:02;101121.72;;;12.83;100.00
36964;BME280;22878;48.616;35.326;2022-10-23T07:05:28;101117.16;;;12.88;100.00
36964;BME280;22878;48.616;35.326;2022-10-23T07:14:50;101110.99;;;13.06;100.00
36964;BME280;22878;48.616;35.326;2022-10-23T07:17:17;101102.91;;;13.11;100.00
36964;BME280;22878;48.616;35.326;2022-10-23T07:19:45;101107.00;;;13.16;100.00
36964;BME280;22878;48.616;35.326;2022-10-23T07:22:12;101099.17;;;13.22;100.00
36964;BME280;22878;48.616;35.326;2022-10-23T07:24:38;101100.86;;;13.31;100.00
36964;BME280;22878;48.616;35.326;2022-10-23T07:27:05;101099.23;;;13.35;100.00
36964;BME280;22878;48.616;35.326;2022-10-23T07:29:32;101090.58;;;13.38;100.00
36964;BME280;22878;48.616;35.326;2022-10-23T07:31:59;101087.63;;;13.42;100.00
36964;BME280;22878;48.616;35.326;2022-10-23T07:34:26;101082.77;;;13.49;100.00
36964;BME280;22878;48.616;35.326;2022-10-23T07:36:52;101082.78;;;13.52;100.00
36964;BME280;22878;48.616;35.326;2022-10-23T07:39:20;101082.52;;;13.53;100.00
36964;BME280;22878;48.616;35.326;2022-10-23T07:41:48;101079.00;;;13.58;100.00
36964;BME280;22878;48.616;35.326;2022-10-23T07:44:17;101074.14;;;13.62;100.00
36964;BME280;22878;48.616;35.326;2022-10-23T07:46:44;101069.80;;;13.67;100.00
36964;BME280;22878;48.616;35.326;2022-10-23T07:49:10;101070.61;;;13.67;100.00
36964;BME280;22878;48.616;35.326;2022-10-23T07:51:36;101064.94;;;13.69;100.00
36964;BME280;22878;48.616;35.326;2022-10-23T07:54:03;101062.78;;;13.71;100.00
36964;BME280;22878;48.616;35.326;2022-10-23T07:56:29;101064.66;;;13.70;100.00
36964;BME280;22878;48.616;35.326;2022-10-23T07:58:56;101059.51;;;13.63;100.00
36964;BME280;22878;48.616;35.326;2022-10-23T08:01:31;101057.36;;;13.66;100.00
36964;BME280;22878;48.616;35.326;2022-10-23T08:07:39;101052.19;;;13.64;100.00
36964;BME280;22878;48.616;35.326;2022-10-23T08:10:07;101056.53;;;13.60;100.00
36964;BME280;22878;48.616;35.326;2022-10-23T08:12:33;101059.78;;;13.59;100.00
36964;BME280;22878;48.616;35.326;2022-10-23T08:14:59;101054.63;;;13.60;100.00
36964;BME280;22878;48.616;35.326;2022-10-23T08:17:26;101055.19;;;13.62;100.00
36964;BME280;22878;48.616;35.326;2022-10-23T08:19:52;101058.70;;;13.66;100.00
36964;BME280;22878;48.616;35.326;2022-10-23T08:22:18;101056.25;;;13.64;100.00
36964;BME280;22878;48.616;35.326;2022-10-23T08:24:44;101053.01;;;13.67;100.00
36964;BME280;22878;48.616;35.326;2022-10-23T08:27:11;101054.64;;;13.66;100.00
36964;BME280;22878;48.616;35.326;2022-10-23T08:29:41;101049.77;;;13.62;100.00
36964;BME280;22878;48.616;35.326;2022-10-23T08:46:01;101034.84;;;13.50;100.00
36964;BME280;22878;48.616;35.326;2022-10-23T08:51:18;101035.36;;;13.44;100.00
36964;BME280;22878;48.616;35.326;2022-10-23T08:53:59;101028.08;;;13.45;100.00
36964;BME280;22878;48.616;35.326;2022-10-23T08:56:36;101027.24;;;13.44;100.00
36964;BME280;22878;48.616;35.326;2022-10-23T09:26:37;100982.42;;;12.83;100.00
36964;BME280;22878;48.616;35.326;2022-10-23T10:05:10;100921.33;;;12.21;100.00
36964;BME280;22878;48.616;35.326;2022-10-23T10:07:51;100927.78;;;12.15;100.00
36964;BME280;22878;48.616;35.326;2022-10-23T10:10:14;100921.02;;;12.13;100.00
36964;BME280;22878;48.616;35.326;2022-10-23T10:12:56;100908.03;;;12.10;100.00
36964;BME280;22878;48.616;35.326;2022-10-23T10:15:42;100907.48;;;12.10;100.00
36964;BME280;22878;48.616;35.326;2022-10-23T11:19:34;100778.30;;;11.47;100.00
36964;BME280;22878;48.616;35.326;2022-10-23T11:27:50;100765.95;;;11.56;100.00
36964;BME280;22878;48.616;35.326;2022-10-23T11:36:50;100753.88;;;11.71;100.00
36964;BME280;22878;48.616;35.326;2022-10-23T11:50:51;100739.13;;;11.89;100.00
36964;BME280;22878;48.616;35.326;2022-10-23T11:59:11;100728.11;;;12.06;100.00
36964;BME280;22878;48.616;35.326;2022-10-23T12:01:27;100711.34;;;12.04;100.00
36964;BME280;22878;48.616;35.326;2022-10-23T13:18:10;100664.80;;;11.74;100.00
36964;BME280;22878;48.616;35.326;2022-10-23T13:26:03;100652.34;;;11.63;100.00
36964;BME280;22878;48.616;35.326;2022-10-23T13:28:40;100653.92;;;11.58;100.00
36964;BME280;22878;48.616;35.326;2022-10-23T13:36:30;100653.41;;;11.59;100.00
36964;BME280;22878;48.616;35.326;2022-10-23T13:42:49;100634.50;;;11.54;100.00
36964;BME280;22878;48.616;35.326;2022-10-23T13:45:25;100633.91;;;11.47;100.00
36964;BME280;22878;48.616;35.326;2022-10-23T13:47:54;100639.86;;;11.46;100.00
36964;BME280;22878;48.616;35.326;2022-10-23T13:50:25;100633.09;;;11.44;100.00
36964;BME280;22878;48.616;35.326;2022-10-23T15:58:22;100644.77;;;10.57;100.00
36964;BME280;22878;48.616;35.326;2022-10-23T16:00:49;100642.34;;;10.58;100.00
36964;BME280;22878;48.616;35.326;2022-10-23T16:03:15;100649.63;;;10.57;100.00
36964;BME280;22878;48.616;35.326;2022-10-23T16:05:42;100646.92;;;10.57;100.00
36964;BME280;22878;48.616;35.326;2022-10-23T16:08:08;100641.00;;;10.58;100.00
36964;BME280;22878;48.616;35.326;2022-10-23T16:10:41;100648.27;;;10.57;100.00
36964;BME280;22878;48.616;35.326;2022-10-23T16:13:08;100652.34;;;10.60;100.00
36964;BME280;22878;48.616;35.326;2022-10-23T16:15:35;100653.14;;;10.60;100.00
36964;BME280;22878;48.616;35.326;2022-10-23T16:18:02;100655.84;;;10.60;100.00
36964;BME280;22878;48.616;35.326;2022-10-23T16:20:29;100652.09;;;10.64;100.00
36964;BME280;22878;48.616;35.326;2022-10-23T16:22:55;100653.19;;;10.65;100.00
36964;BME280;22878;48.616;35.326;2022-10-23T16:25:21;100654.25;;;10.62;100.00
36964;BME280;22878;48.616;35.326;2022-10-23T16:27:47;100653.14;;;10.60;100.00
36964;BME280;22878;48.616;35.326;2022-10-23T16:30:14;100653.39;;;10.59;100.00
36964;BME280;22878;48.616;35.326;2022-10-23T16:32:40;100652.58;;;10.58;100.00
36964;BME280;22878;48.616;35.326;2022-10-23T16:35:07;100650.43;;;10.58;100.00
36964;BME280;22878;48.616;35.326;2022-10-23T16:37:33;100652.86;;;10.57;100.00
36964;BME280;22878;48.616;35.326;2022-10-23T16:40:00;100648.80;;;10.54;100.00
36964;BME280;22878;48.616;35.326;2022-10-23T16:42:27;100651.77;;;10.58;100.00
36964;BME280;22878;48.616;35.326;2022-10-23T16:44:53;100650.20;;;10.62;100.00
36964;BME280;22878;48.616;35.326;2022-10-23T16:47:21;100653.16;;;10.63;100.00
36964;BME280;22878;48.616;35.326;2022-10-23T16:49:47;100652.34;;;10.60;100.00
36964;BME280;22878;48.616;35.326;2022-10-23T16:52:13;100654.52;;;10.63;100.00
36964;BME280;22878;48.616;35.326;2022-10-23T16:54:42;100653.19;;;10.65;100.00
36964;BME280;22878;48.616;35.326;2022-10-23T16:57:08;100654.56;;;10.68;100.00
36964;BME280;22878;48.616;35.326;2022-10-23T16:59:34;100660.23;;;10.72;100.00
36964;BME280;22878;48.616;35.326;2022-10-23T17:02:01;100652.17;;;10.74;100.00
36964;BME280;22878;48.616;35.326;2022-10-23T17:04:28;100657.83;;;10.75;100.00
36964;BME280;22878;48.616;35.326;2022-10-23T17:06:54;100649.74;;;10.75;100.00
36964;BME280;22878;48.616;35.326;2022-10-23T17:09:20;100651.38;;;10.79;100.00
36964;BME280;22878;48.616;35.326;2022-10-23T17:11:48;100650.05;;;10.81;100.00
36964;BME280;22878;48.616;35.326;2022-10-23T17:14:17;100648.44;;;10.80;100.00
36964;BME280;22878;48.616;35.326;2022-10-23T17:16:47;100654.90;;;10.82;100.00
36964;BME280;22878;48.616;35.326;2022-10-23T17:19:17;100649.53;;;10.84;100.00
36964;BME280;22878;48.616;35.326;2022-10-23T17:21:45;100650.36;;;10.87;100.00
36964;BME280;22878;48.616;35.326;2022-10-23T17:24:11;100643.37;;;10.89;100.00
36964;BME280;22878;48.616;35.326;2022-10-23T17:26:40;100653.34;;;10.91;100.00
36964;BME280;22878;48.616;35.326;2022-10-23T17:29:09;100646.89;;;10.92;100.00
36964;BME280;22878;48.616;35.326;2022-10-23T17:31:41;100649.57;;;10.89;100.00
36964;BME280;22878;48.616;35.326;2022-10-23T17:34:11;100651.70;;;10.87;100.00
36964;BME280;22878;48.616;35.326;2022-10-23T17:36:44;100647.64;;;10.85;100.00
36964;BME280;22878;48.616;35.326;2022-10-23T17:39:14;100646.57;;;10.83;100.00
36964;BME280;22878;48.616;35.326;2022-10-23T17:41:42;100646.83;;;10.84;100.00
36964;BME280;22878;48.616;35.326;2022-10-23T17:44:09;100639.00;;;10.80;100.00
36964;BME280;22878;48.616;35.326;2022-10-23T17:46:38;100642.75;;;10.79;100.00
36964;BME280;22878;48.616;35.326;2022-10-23T17:49:06;100645.74;;;10.80;100.00
36964;BME280;22878;48.616;35.326;2022-10-23T17:51:34;100647.34;;;10.79;100.00
36964;BME280;22878;48.616;35.326;2022-10-23T17:54:03;100648.98;;;10.80;100.00
36964;BME280;22878;48.616;35.326;2022-10-23T17:56:34;100653.02;;;10.82;100.00
36964;BME280;22878;48.616;35.326;2022-10-23T17:59:05;100654.11;;;10.84;100.00
36964;BME280;22878;48.616;35.326;2022-10-23T18:01:33;100655.22;;;10.85;100.00
36964;BME280;22878;48.616;35.326;2022-10-23T18:04:02;100655.22;;;10.85;100.00
36964;BME280;22878;48.616;35.326;2022-10-23T18:09:03;100654.96;;;10.89;100.00
36964;BME280;22878;48.616;35.326;2022-10-23T18:14:03;100662.27;;;10.91;100.00
36964;BME280;22878;48.616;35.326;2022-10-23T18:16:31;100666.31;;;10.91;100.00
36964;BME280;22878;48.616;35.326;2022-10-23T18:18:59;100659.81;;;10.90;100.00
36964;BME280;22878;48.616;35.326;2022-10-23T18:21:26;100665.48;;;10.94;100.00
36964;BME280;22878;48.616;35.326;2022-10-23T18:23:53;100670.62;;;10.93;100.00
36964;BME280;22878;48.616;35.326;2022-10-23T18:26:22;100671.97;;;10.93;100.00
36964;BME280;22878;48.616;35.326;2022-10-23T18:28:53;100671.69;;;10.94;100.00
36964;BME280;22878;48.616;35.326;2022-10-23T18:31:26;100670.64;;;10.95;100.00
36964;BME280;22878;48.616;35.326;2022-10-23T18:34:01;100669.27;;;10.93;100.00
36964;BME280;22878;48.616;35.326;2022-10-23T18:36:31;100671.98;;;10.95;100.00
36964;BME280;22878;48.616;35.326;2022-10-23T18:38:59;100673.35;;;10.98;100.00
36964;BME280;22878;48.616;35.326;2022-10-23T18:41:26;100668.20;;;10.96;100.00
36964;BME280;22878;48.616;35.326;2022-10-23T18:43:56;100670.11;;;10.98;100.00
36964;BME280;22878;48.616;35.326;2022-10-23T18:46:22;100672.53;;;11.00;100.00
36964;BME280;22878;48.616;35.326;2022-10-23T18:48:48;100682.81;;;11.00;100.00
36964;BME280;22878;48.616;35.326;2022-10-23T18:51:21;100684.42;;;11.01;100.00
36964;BME280;22878;48.616;35.326;2022-10-23T18:53:49;100683.34;;;11.02;100.00
36964;BME280;22878;48.616;35.326;2022-10-23T18:56:18;100694.94;;;11.03;100.00
36964;BME280;22878;48.616;35.326;2022-10-23T19:01:21;100695.50;;;11.05;100.00
36964;BME280;22878;48.616;35.326;2022-10-23T19:03:47;100693.34;;;11.04;100.00
36964;BME280;22878;48.616;35.326;2022-10-23T19:06:14;100694.42;;;11.03;100.00
36964;BME280;22878;48.616;35.326;2022-10-23T19:08:42;100696.58;;;11.04;100.00
36964;BME280;22878;48.616;35.326;2022-10-23T19:11:10;100696.84;;;11.05;100.00
36964;BME280;22878;48.616;35.326;2022-10-23T19:13:37;100706.84;;;11.07;100.00
36964;BME280;22878;48.616;35.326;2022-10-23T19:18:37;100699.00;;;11.05;100.00
36964;BME280;22878;48.616;35.326;2022-10-23T19:21:05;100701.99;;;11.06;100.00
36964;BME280;22878;48.616;35.326;2022-10-23T19:23:33;100703.85;;;11.06;100.00
36964;BME280;22878;48.616;35.326;2022-10-23T19:26:10;100704.39;;;11.05;100.00
36964;BME280;22878;48.616;35.326;2022-10-23T19:28:40;100695.50;;;11.05;100.00
36964;BME280;22878;48.616;35.326;2022-10-23T19:31:08;100695.77;;;11.06;100.00
36964;BME280;22878;48.616;35.326;2022-10-23T19:33:36;100694.71;;;11.07;100.00
36964;BME280;22878;48.616;35.326;2022-10-23T19:36:04;100704.17;;;11.09;100.00
36964;BME280;22878;48.616;35.326;2022-10-23T19:38:31;100706.84;;;11.07;100.00
36964;BME280;22878;48.616;35.326;2022-10-23T19:40:57;100703.06;;;11.08;100.00
36964;BME280;22878;48.616;35.326;2022-10-23T19:43:23;100703.61;;;11.07;100.00
36964;BME280;22878;48.616;35.326;2022-10-23T19:45:49;100708.44;;;11.05;100.00
36964;BME280;22878;48.616;35.326;2022-10-23T19:48:15;100704.94;;;11.05;100.00
36964;BME280;22878;48.616;35.326;2022-10-23T19:50:41;100710.61;;;11.03;100.00
36964;BME280;22878;48.616;35.326;2022-10-23T19:53:08;100703.84;;;11.01;100.00
36964;BME280;22878;48.616;35.326;2022-10-23T19:55:34;100712.76;;;11.04;100.00
36964;BME280;22878;48.616;35.326;2022-10-23T19:58:02;100721.37;;;11.01;100.00
36964;BME280;22878;48.616;35.326;2022-10-23T20:00:28;100716.24;;;11.02;100.00
36964;BME280;22878;48.616;35.326;2022-10-23T20:02:54;100721.91;;;11.03;100.00
36964;BME280;22878;48.616;35.326;2022-10-23T20:05:21;100723.79;;;11.02;100.00
36964;BME280;22878;48.616;35.326;2022-10-23T20:07:48;100720.55;;;11.03;100.00
36964;BME280;22878;48.616;35.326;2022-10-23T20:10:15;100721.09;;;11.02;100.00
36964;BME280;22878;48.616;35.326;2022-10-23T20:12:42;100720.00;;;10.98;100.00
36964;BME280;22878;48.616;35.326;2022-10-23T20:15:09;100724.86;;;10.99;100.00
36964;BME280;22878;48.616;35.326;2022-10-23T20:17:35;100720.56;;;11.00;100.00
36964;BME280;22878;48.616;35.326;2022-10-23T20:20:02;100717.87;;;11.00;100.00
36964;BME280;22878;48.616;35.326;2022-10-23T20:22:28;100719.48;;;11.01;100.00
36964;BME280;22878;48.616;35.326;2022-10-23T20:24:54;100715.44;;;11.01;100.00
36964;BME280;22878;48.616;35.326;2022-10-23T20:27:20;100715.44;;;11.01;100.00
36964;BME280;22878;48.616;35.326;2022-10-23T20:29:47;100718.37;;;11.00;100.00
36964;BME280;22878;48.616;35.326;2022-10-23T20:32:13;100718.37;;;11.00;100.00
36964;BME280;22878;48.616;35.326;2022-10-23T20:34:40;100722.70;;;10.98;100.00
36964;BME280;22878;48.616;35.326;2022-10-23T20:37:07;100724.86;;;10.99;100.00
36964;BME280;22878;48.616;35.326;2022-10-23T20:39:33;100726.18;;;10.96;100.00
36964;BME280;22878;48.616;35.326;2022-10-23T20:42:02;100728.85;;;10.94;100.00